createdAt,value
2022-10-13T00:01:21.135Z,12.47
2022-10-13T00:03:48.932Z,13.52
2022-10-13T00:06:18.987Z,12.43
2022-10-13T00:08:46.449Z,13.00
2022-10-13T00:11:25.236Z,13.00
2022-10-13T00:14:00.751Z,12.77
2022-10-13T00:16:29.079Z,11.33
2022-10-13T00:18:56.380Z,12.27
2022-10-13T00:21:26.497Z,12.07
2022-10-13T00:23:54.743Z,13.10
2022-10-13T00:26:25.398Z,11.82
2022-10-13T00:28:53.802Z,11.52
2022-10-13T00:31:23.322Z,11.40
2022-10-13T00:33:50.461Z,13.15
2022-10-13T00:36:17.711Z,11.97
2022-10-13T00:38:45.014Z,11.23
2022-10-13T00:41:12.526Z,10.50
2022-10-13T00:44:00.039Z,11.50
2022-10-13T00:46:37.111Z,11.70
2022-10-13T00:49:12.079Z,10.17
2022-10-13T00:51:48.797Z,10.50
2022-10-13T00:54:24.175Z,10.67
2022-10-13T00:56:52.686Z,11.17
2022-10-13T00:59:29.023Z,10.97
2022-10-13T01:01:58.584Z,10.73
2022-10-13T01:04:32.152Z,11.13
2022-10-13T01:07:00.119Z,10.13
2022-10-13T01:09:27.201Z,10.23
2022-10-13T01:12:18.624Z,10.77
2022-10-13T01:15:14.467Z,9.60
2022-10-13T01:18:01.527Z,9.60
2022-10-13T01:20:49.806Z,10.47
2022-10-13T01:24:10.030Z,9.47
2022-10-13T01:27:26.103Z,10.40
2022-10-13T01:30:18.438Z,9.27
2022-10-13T01:33:09.891Z,9.10
2022-10-13T01:35:54.272Z,9.13
2022-10-13T01:38:34.623Z,10.00
2022-10-13T01:41:25.826Z,10.10
2022-10-13T01:44:03.504Z,9.67
2022-10-13T01:46:38.064Z,9.38
2022-10-13T01:49:14.419Z,9.13
2022-10-13T01:51:44.156Z,9.53
2022-10-13T01:54:11.470Z,9.48
2022-10-13T01:56:38.443Z,10.40
2022-10-13T01:59:14.625Z,9.43
2022-10-13T02:01:56.710Z,10.10
2022-10-13T02:05:05.439Z,9.43
2022-10-13T02:08:05.862Z,9.10
2022-10-13T02:11:06.663Z,10.15
2022-10-13T02:13:37.353Z,9.73
2022-10-13T02:16:05.017Z,9.48
2022-10-13T02:18:35.921Z,9.43
2022-10-13T02:21:04.643Z,9.45
2022-10-13T02:23:32.083Z,9.23
2022-10-13T02:26:00.616Z,8.53
2022-10-13T02:28:29.348Z,10.63
2022-10-13T02:30:56.496Z,9.65
2022-10-13T02:33:23.443Z,9.67
2022-10-13T02:35:50.474Z,10.17
2022-10-13T02:38:17.504Z,8.53
2022-10-13T02:40:45.208Z,9.63
2022-10-13T02:43:12.446Z,9.10
2022-10-13T02:45:39.605Z,9.43
2022-10-13T02:48:06.704Z,8.55
2022-10-13T02:50:33.695Z,9.48
2022-10-13T02:53:00.701Z,9.57
2022-10-13T02:55:27.775Z,9.32
2022-10-13T02:57:55.094Z,9.98
2022-10-13T03:00:23.014Z,10.63
2022-10-13T03:02:49.951Z,9.75
2022-10-13T03:05:17.428Z,8.82
2022-10-13T03:07:44.574Z,9.47
2022-10-13T03:10:11.665Z,8.93
2022-10-13T03:12:38.880Z,8.50
2022-10-13T03:15:06.587Z,8.90
2022-10-13T03:17:33.604Z,9.02
2022-10-13T03:20:00.572Z,10.27
2022-10-13T03:22:27.575Z,8.57
2022-10-13T03:24:54.553Z,9.13
2022-10-13T03:27:21.489Z,8.68
2022-10-13T03:29:48.538Z,8.93
2022-10-13T03:32:16.554Z,9.63
2022-10-13T03:34:43.625Z,9.13
2022-10-13T03:37:10.748Z,8.37
2022-10-13T03:39:37.834Z,8.68
2022-10-13T03:42:04.921Z,8.68
2022-10-13T03:44:31.989Z,7.83
2022-10-13T03:46:59.003Z,9.95
2022-10-13T03:49:25.983Z,8.25
2022-10-13T03:51:53.046Z,9.05
2022-10-13T03:54:20.148Z,9.60
2022-10-13T03:56:47.528Z,8.88
2022-10-13T03:59:17.333Z,9.23
2022-10-13T04:01:44.415Z,9.20
2022-10-13T04:04:12.894Z,9.75
2022-10-13T04:06:39.938Z,9.57
2022-10-13T04:09:06.948Z,9.00
2022-10-13T04:11:34.424Z,9.03
2022-10-13T04:14:01.450Z,9.40
2022-10-13T04:16:30.863Z,9.70
2022-10-13T04:19:04.313Z,10.00
2022-10-13T04:21:34.078Z,10.50
2022-10-13T04:24:02.327Z,10.27
2022-10-13T04:26:34.119Z,9.68
2022-10-13T04:29:04.321Z,10.05
2022-10-13T04:31:32.333Z,9.77
2022-10-13T04:33:59.551Z,10.63
2022-10-13T04:36:27.070Z,10.27
2022-10-13T04:38:55.457Z,10.10
2022-10-13T04:41:23.212Z,11.67
2022-10-13T04:43:54.220Z,11.50
2022-10-13T04:46:25.584Z,10.75
2022-10-13T04:48:53.127Z,10.07
2022-10-13T04:51:23.956Z,11.18
2022-10-13T04:54:02.328Z,10.23
2022-10-13T04:56:29.714Z,10.30
2022-10-13T04:58:56.810Z,10.43
2022-10-13T05:01:25.461Z,10.63
2022-10-13T05:03:59.683Z,10.73
2022-10-13T05:06:31.323Z,11.07
2022-10-13T05:08:59.543Z,10.55
2022-10-13T05:11:28.280Z,10.85
2022-10-13T05:13:56.824Z,10.17
2022-10-13T05:16:25.626Z,10.67
2022-10-13T05:18:55.152Z,11.37
2022-10-13T05:21:26.621Z,10.70
2022-10-13T05:23:55.937Z,10.77
2022-10-13T05:26:29.078Z,10.73
2022-10-13T05:29:00.586Z,10.10
2022-10-13T05:31:29.618Z,10.77
2022-10-13T05:33:57.235Z,11.73
2022-10-13T05:36:31.363Z,11.00
2022-10-13T05:39:02.123Z,10.75
2022-10-13T05:41:30.850Z,10.90
2022-10-13T05:44:04.461Z,11.27
2022-10-13T05:46:31.730Z,11.15
2022-10-13T05:48:59.054Z,11.60
2022-10-13T05:51:36.790Z,11.15
2022-10-13T05:54:31.018Z,11.60
2022-10-13T05:57:14.458Z,11.63
2022-10-13T05:59:51.254Z,11.30
2022-10-13T06:02:20.906Z,11.13
2022-10-13T06:04:51.991Z,11.57
2022-10-13T06:07:19.655Z,11.38
2022-10-13T06:09:46.842Z,10.27
2022-10-13T06:12:13.901Z,11.27
2022-10-13T06:14:40.956Z,11.77
2022-10-13T06:17:08.573Z,12.13
2022-10-13T06:19:35.668Z,11.98
2022-10-13T06:22:03.773Z,11.68
2022-10-13T06:24:31.698Z,11.40
2022-10-13T06:26:58.815Z,12.25
2022-10-13T06:29:25.920Z,11.82
2022-10-13T06:31:52.998Z,10.95
2022-10-13T06:34:19.986Z,11.63
2022-10-13T06:36:49.634Z,12.10
2022-10-13T06:39:16.822Z,11.40
2022-10-13T06:41:44.067Z,11.00
2022-10-13T06:44:11.273Z,10.90
2022-10-13T06:46:38.263Z,13.27
2022-10-13T06:49:05.245Z,11.70
2022-10-13T06:51:32.652Z,11.70
2022-10-13T06:53:59.631Z,11.32
2022-10-13T06:56:26.816Z,10.82
2022-10-13T06:58:53.812Z,11.07
2022-10-13T07:01:20.962Z,11.27
2022-10-13T07:03:51.607Z,10.40
2022-10-13T07:06:19.367Z,12.07
2022-10-13T07:08:46.801Z,10.90
2022-10-13T07:11:16.447Z,11.38
2022-10-13T07:13:46.616Z,11.70
2022-10-13T07:16:15.349Z,10.77
2022-10-13T07:18:42.501Z,11.18
2022-10-13T07:21:10.081Z,10.95
2022-10-13T07:23:37.019Z,12.13
2022-10-13T07:26:14.004Z,11.13
2022-10-13T07:28:42.493Z,10.38
2022-10-13T07:31:14.299Z,10.82
2022-10-13T07:33:44.305Z,10.48
2022-10-13T07:36:12.526Z,10.85
2022-10-13T07:38:40.016Z,10.95
2022-10-13T07:41:10.188Z,9.75
2022-10-13T07:43:37.221Z,10.18
2022-10-13T07:46:05.416Z,9.95
2022-10-13T07:48:33.709Z,10.20
2022-10-13T07:51:08.360Z,10.13
2022-10-13T07:53:36.271Z,9.80
2022-10-13T07:56:05.911Z,10.38
2022-10-13T07:58:33.921Z,10.57
2022-10-13T08:01:02.265Z,10.57
2022-10-13T08:03:30.729Z,10.90
2022-10-13T08:06:02.714Z,9.93
2022-10-13T08:08:30.395Z,9.55
2022-10-13T08:11:31.999Z,10.10
2022-10-13T08:14:01.861Z,9.32
2022-10-13T08:16:30.216Z,10.15
2022-10-13T08:18:58.989Z,9.80
2022-10-13T08:24:17.609Z,10.15
2022-10-13T08:26:49.238Z,9.38
2022-10-13T08:29:22.007Z,8.30
2022-10-13T08:34:24.293Z,8.30
2022-10-13T08:36:54.370Z,8.05
2022-10-13T08:39:23.024Z,7.70
2022-10-13T08:41:50.592Z,7.90
2022-10-13T08:47:44.638Z,7.95
2022-10-13T08:50:23.067Z,7.53
2022-10-13T08:53:13.508Z,7.32
2022-10-13T08:55:46.757Z,7.40
2022-10-13T08:58:28.468Z,6.00
2022-10-13T09:01:07.353Z,8.88
2022-10-13T09:03:52.993Z,8.07
2022-10-13T09:06:28.468Z,7.65
2022-10-13T09:09:02.417Z,7.80
2022-10-13T09:11:36.903Z,7.55
2022-10-13T09:14:25.001Z,6.50
2022-10-13T09:16:54.957Z,6.78
2022-10-13T09:19:36.568Z,7.43
2022-10-13T09:22:25.644Z,6.97
2022-10-13T09:25:07.891Z,6.05
2022-10-13T09:27:46.701Z,7.38
2022-10-13T09:30:49.812Z,6.88
2022-10-13T09:33:24.128Z,6.90
2022-10-13T09:35:57.170Z,6.93
2022-10-13T09:38:25.893Z,7.25
2022-10-13T09:41:11.083Z,6.82
2022-10-13T09:44:11.332Z,7.53
2022-10-13T09:46:48.060Z,6.47
2022-10-13T09:49:41.504Z,6.85
2022-10-13T09:52:19.221Z,7.00
2022-10-13T09:54:53.423Z,6.50
2022-10-13T09:57:44.723Z,6.40
2022-10-13T10:00:24.573Z,6.43
2022-10-13T10:03:11.015Z,6.07
2022-10-13T10:05:52.148Z,6.30
2022-10-13T10:09:04.690Z,6.55
2022-10-13T10:11:42.547Z,6.93
2022-10-13T10:14:34.037Z,6.68
2022-10-13T10:17:26.583Z,6.57
2022-10-13T10:20:18.232Z,6.53
2022-10-13T10:23:05.046Z,5.90
2022-10-13T10:25:57.431Z,5.90
2022-10-13T10:29:16.489Z,6.03
2022-10-13T10:32:11.330Z,6.00
2022-10-13T10:34:53.071Z,5.95
2022-10-13T10:37:52.249Z,5.72
2022-10-13T10:41:12.063Z,5.63
2022-10-13T10:44:00.201Z,5.68
2022-10-13T10:46:34.572Z,5.80
2022-10-13T10:49:25.714Z,5.68
2022-10-13T10:51:53.241Z,5.43
2022-10-13T10:54:52.643Z,6.00
2022-10-13T10:57:48.314Z,5.85
2022-10-13T11:00:22.410Z,5.90
2022-10-13T11:03:25.594Z,5.47
2022-10-13T11:06:06.149Z,6.13
2022-10-13T11:08:41.969Z,5.50
2022-10-13T11:11:26.677Z,5.60
2022-10-13T11:14:22.531Z,5.78
2022-10-13T11:17:24.043Z,5.50
2022-10-13T11:19:51.539Z,6.50
2022-10-13T11:22:22.638Z,7.28
2022-10-13T11:24:57.630Z,7.78
2022-10-13T11:27:39.943Z,6.22
2022-10-13T11:31:18.411Z,5.65
2022-10-13T11:33:47.827Z,5.93
2022-10-13T11:36:33.199Z,6.13
2022-10-13T11:42:24.364Z,6.18
2022-10-13T11:45:01.610Z,5.68
2022-10-13T11:47:34.112Z,6.25
2022-10-13T11:50:35.021Z,6.45
2022-10-13T11:53:13.980Z,5.97
2022-10-13T11:56:03.271Z,5.72
2022-10-13T11:58:33.597Z,5.85
2022-10-13T12:01:00.482Z,6.10
2022-10-13T12:03:43.498Z,5.93
2022-10-13T12:06:16.627Z,5.95
2022-10-13T12:08:51.459Z,6.70
2022-10-13T12:11:29.239Z,6.47
2022-10-13T12:13:57.487Z,6.57
2022-10-13T12:16:24.563Z,6.60
2022-10-13T12:18:52.420Z,6.75
2022-10-13T12:21:22.885Z,6.63
2022-10-13T12:23:52.467Z,7.07
2022-10-13T12:26:25.359Z,7.95
2022-10-13T12:29:12.326Z,7.10
2022-10-13T12:31:42.069Z,7.40
2022-10-13T12:34:32.935Z,7.18
2022-10-13T12:37:40.003Z,7.47
2022-10-13T12:40:13.723Z,8.88
2022-10-13T12:42:41.541Z,7.50
2022-10-13T12:45:34.739Z,8.35
2022-10-13T12:48:01.742Z,7.82
2022-10-13T12:50:37.074Z,7.60
2022-10-13T12:53:19.024Z,8.35
2022-10-13T12:55:59.147Z,7.85
2022-10-13T12:58:34.230Z,8.98
2022-10-13T13:01:12.414Z,8.50
2022-10-13T13:03:43.353Z,8.95
2022-10-13T13:06:23.617Z,9.05
2022-10-13T13:09:24.875Z,8.48
2022-10-13T13:12:11.360Z,8.23
2022-10-13T13:14:42.648Z,8.23
2022-10-13T13:17:32.997Z,8.52
2022-10-13T13:20:31.208Z,7.97
2022-10-13T13:22:58.252Z,8.20
2022-10-13T13:25:25.498Z,9.75
2022-10-13T13:27:53.039Z,10.25
2022-10-13T13:30:23.234Z,9.85
2022-10-13T13:32:50.732Z,8.38
2022-10-13T13:35:17.992Z,8.13
2022-10-13T13:37:51.566Z,8.05
2022-10-13T13:40:27.931Z,7.85
2022-10-13T13:42:55.873Z,8.13
2022-10-13T13:45:26.546Z,8.20
2022-10-13T13:47:59.486Z,8.13
2022-10-13T13:50:35.486Z,8.30
2022-10-13T13:53:02.722Z,8.60
2022-10-13T13:55:30.233Z,7.88
2022-10-13T13:57:58.284Z,7.05
2022-10-13T14:00:25.519Z,6.75
2022-10-13T14:02:52.556Z,6.57
2022-10-13T14:05:20.048Z,6.88
2022-10-13T14:07:47.184Z,6.70
2022-10-13T14:10:14.418Z,6.25
2022-10-13T14:12:41.387Z,6.43
2022-10-13T14:15:09.317Z,6.35
2022-10-13T14:17:36.390Z,6.82
2022-10-13T14:20:03.827Z,7.13
2022-10-13T14:22:30.793Z,7.03
2022-10-13T14:24:57.814Z,7.95
2022-10-13T14:27:25.126Z,7.32
2022-10-13T14:29:52.109Z,7.95
2022-10-13T14:32:19.520Z,7.95
2022-10-13T14:34:46.861Z,7.63
2022-10-13T14:37:14.211Z,8.10
2022-10-13T14:39:41.571Z,8.85
2022-10-13T14:42:08.655Z,8.38
2022-10-13T14:44:35.855Z,9.88
2022-10-13T14:47:02.947Z,8.43
2022-10-13T14:49:29.970Z,9.35
2022-10-13T14:51:57.108Z,9.60
2022-10-13T14:54:25.464Z,9.88
2022-10-13T14:56:52.417Z,11.30
2022-10-13T14:59:19.652Z,10.23
2022-10-13T15:01:48.939Z,11.18
2022-10-13T15:04:15.925Z,11.27
2022-10-13T15:06:43.007Z,10.18
2022-10-13T15:09:10.790Z,9.35
2022-10-13T15:11:37.973Z,9.32
2022-10-13T15:14:04.999Z,8.80
2022-10-13T15:16:33.652Z,8.73
2022-10-13T15:19:00.644Z,8.48
2022-10-13T15:21:27.678Z,8.15
2022-10-13T15:23:55.406Z,8.77
2022-10-13T15:26:22.938Z,8.20
2022-10-13T15:28:52.912Z,7.70
2022-10-13T15:31:22.418Z,6.78
2022-10-13T15:33:53.240Z,7.05
2022-10-13T15:36:22.044Z,6.18
2022-10-13T15:38:49.200Z,6.05
2022-10-13T15:41:16.595Z,5.82
2022-10-13T15:43:43.784Z,5.90
2022-10-13T15:46:24.162Z,6.00
2022-10-13T15:48:53.384Z,6.72
2022-10-13T15:51:24.085Z,5.30
2022-10-13T15:53:51.418Z,4.85
2022-10-13T15:56:18.790Z,4.80
2022-10-13T15:58:45.841Z,5.05
2022-10-13T16:01:14.024Z,5.78
2022-10-13T16:03:41.959Z,5.43
2022-10-13T16:06:12.166Z,5.20
2022-10-13T16:08:40.852Z,6.72
2022-10-13T16:11:13.717Z,7.30
2022-10-13T16:13:41.634Z,7.32
2022-10-13T16:16:10.256Z,7.40
2022-10-13T16:18:41.448Z,7.05
2022-10-13T16:21:19.011Z,7.00
2022-10-13T16:23:47.704Z,7.30
2022-10-13T16:26:17.424Z,8.45
2022-10-13T16:28:46.543Z,7.53
2022-10-13T16:31:16.607Z,9.45
2022-10-13T16:33:45.728Z,8.77
2022-10-13T16:36:16.760Z,8.82
2022-10-13T16:38:45.910Z,9.52
2022-10-13T16:41:18.964Z,9.02
2022-10-13T16:43:47.958Z,9.23
2022-10-13T16:46:18.974Z,9.88
2022-10-13T16:48:47.539Z,9.95
2022-10-13T16:51:19.174Z,9.98
2022-10-13T16:54:02.945Z,9.50
2022-10-13T16:56:31.701Z,9.68
2022-10-13T16:59:05.741Z,10.73
2022-10-13T17:01:34.870Z,9.85
2022-10-13T17:04:03.067Z,10.77
2022-10-13T17:06:30.465Z,10.05
2022-10-13T17:08:59.522Z,11.30
2022-10-13T17:11:30.470Z,10.90
2022-10-13T17:13:59.543Z,10.77
2022-10-13T17:16:27.534Z,12.77
2022-10-13T17:18:55.137Z,11.43
2022-10-13T17:21:22.556Z,12.35
2022-10-13T17:23:49.933Z,11.90
2022-10-13T17:26:18.728Z,12.95
2022-10-13T17:28:46.003Z,12.77
2022-10-13T17:31:17.628Z,13.27
2022-10-13T17:33:47.395Z,12.98
2022-10-13T17:36:19.427Z,13.82
2022-10-13T17:38:48.092Z,13.55
2022-10-13T17:41:17.382Z,14.57
2022-10-13T17:43:44.613Z,14.98
2022-10-13T17:46:37.004Z,15.20
2022-10-13T17:49:04.033Z,15.23
2022-10-13T17:51:31.148Z,16.00
2022-10-13T17:53:59.731Z,16.35
2022-10-13T17:56:27.241Z,17.45
2022-10-13T17:58:54.719Z,17.05
2022-10-13T18:01:26.530Z,16.75
2022-10-13T18:03:57.151Z,16.90
2022-10-13T18:06:24.566Z,17.60
2022-10-13T18:08:51.874Z,17.52
2022-10-13T18:11:22.900Z,18.30
2022-10-13T18:13:50.686Z,19.23
2022-10-13T18:16:21.438Z,18.88
2022-10-13T18:18:50.215Z,20.23
2022-10-13T18:21:22.317Z,20.40
2022-10-13T18:23:49.784Z,19.00
2022-10-13T18:26:19.505Z,19.63
2022-10-13T18:28:48.965Z,19.05
2022-10-13T18:31:37.033Z,19.40
2022-10-13T18:34:08.067Z,19.70
2022-10-13T18:36:43.073Z,19.30
2022-10-13T18:39:19.613Z,18.15
2022-10-13T18:41:47.928Z,18.10
2022-10-13T18:44:15.712Z,19.05
2022-10-13T18:46:43.139Z,17.88
2022-10-13T18:49:15.105Z,19.27
2022-10-13T18:51:42.403Z,20.20
2022-10-13T18:54:10.200Z,17.90
2022-10-13T18:56:37.676Z,18.55
2022-10-13T18:59:08.235Z,18.40
2022-10-13T19:01:37.080Z,18.05
2022-10-13T19:04:05.647Z,16.75
2022-10-13T19:06:33.216Z,16.75
2022-10-13T19:09:05.240Z,17.30
2022-10-13T19:11:33.610Z,15.75
2022-10-13T19:14:01.622Z,16.17
2022-10-13T19:16:31.225Z,15.30
2022-10-13T19:18:58.895Z,15.27
2022-10-13T19:21:26.304Z,15.43
2022-10-13T19:23:53.627Z,15.15
2022-10-13T19:26:24.587Z,14.27
2022-10-13T19:29:05.550Z,13.50
2022-10-13T19:31:34.629Z,15.15
2022-10-13T19:34:03.296Z,15.25
2022-10-13T19:36:40.634Z,13.90
2022-10-13T19:39:22.245Z,13.70
2022-10-13T19:41:51.055Z,14.15
2022-10-13T19:44:20.440Z,15.57
2022-10-13T19:46:48.070Z,16.35
2022-10-13T19:49:17.755Z,15.45
2022-10-13T19:51:45.994Z,15.93
2022-10-13T19:54:14.905Z,16.85
2022-10-13T19:56:46.044Z,15.02
2022-10-13T19:59:13.344Z,16.10
2022-10-13T20:01:41.117Z,15.95
2022-10-13T20:04:10.654Z,16.98
2022-10-13T20:06:38.301Z,16.70
2022-10-13T20:09:06.035Z,17.45
2022-10-13T20:11:33.108Z,17.08
2022-10-13T20:14:00.057Z,16.95
2022-10-13T20:16:27.227Z,18.13
2022-10-13T20:18:58.562Z,18.33
2022-10-13T20:21:27.393Z,17.55
2022-10-13T20:23:54.792Z,18.58
2022-10-13T20:26:22.786Z,17.67
2022-10-13T20:28:52.193Z,17.33
2022-10-13T20:31:21.721Z,17.20
2022-10-13T20:33:52.782Z,18.65
2022-10-13T20:36:19.726Z,19.13
2022-10-13T20:38:51.559Z,18.67
2022-10-13T20:41:31.318Z,18.88
2022-10-13T20:44:03.742Z,17.90
2022-10-13T20:46:33.380Z,17.95
2022-10-13T20:49:16.338Z,18.02
2022-10-13T20:51:47.371Z,18.27
2022-10-13T20:54:16.268Z,18.25
2022-10-13T20:56:43.722Z,19.92
2022-10-13T20:59:14.777Z,18.75
2022-10-13T21:01:42.465Z,19.02
2022-10-13T21:04:09.798Z,18.33
2022-10-13T21:06:37.159Z,19.10
2022-10-13T21:09:07.152Z,18.23
2022-10-13T21:11:34.556Z,19.00
2022-10-13T21:14:06.498Z,18.77
2022-10-13T21:16:34.224Z,18.55
2022-10-13T21:19:01.504Z,19.02
2022-10-13T21:21:32.539Z,19.00
2022-10-13T21:24:04.476Z,19.40
2022-10-13T21:26:34.176Z,19.58
2022-10-13T21:29:02.139Z,19.17
2022-10-13T21:31:29.743Z,20.00
2022-10-13T21:33:57.435Z,19.67
2022-10-13T21:36:29.896Z,19.77
2022-10-13T21:39:04.965Z,19.70
2022-10-13T21:41:32.122Z,19.10
2022-10-13T21:43:59.390Z,20.67
2022-10-13T21:46:32.436Z,19.05
2022-10-13T21:49:04.215Z,20.55
2022-10-13T21:51:38.093Z,20.20
2022-10-13T21:54:09.386Z,20.50
2022-10-13T21:56:37.702Z,19.58
2022-10-13T21:59:05.913Z,20.75
2022-10-13T22:01:34.247Z,20.48
2022-10-13T22:04:02.516Z,18.63
2022-10-13T22:06:32.223Z,19.02
2022-10-13T22:09:02.282Z,19.00
2022-10-13T22:11:32.324Z,19.33
2022-10-13T22:14:00.269Z,20.38
2022-10-13T22:16:33.215Z,18.08
2022-10-13T22:19:00.290Z,19.13
2022-10-13T22:21:31.302Z,20.15
2022-10-13T22:24:01.161Z,20.00
2022-10-13T22:26:31.261Z,20.77
2022-10-13T22:29:00.882Z,22.02
2022-10-13T22:31:28.614Z,21.40
2022-10-13T22:33:55.552Z,22.50
2022-10-13T22:36:25.266Z,23.38
2022-10-13T22:38:58.836Z,21.75
2022-10-13T22:41:26.264Z,22.85
2022-10-13T22:43:58.825Z,23.77
2022-10-13T22:46:32.799Z,23.52
2022-10-13T22:49:00.332Z,24.13
2022-10-13T22:51:30.527Z,22.80
2022-10-13T22:53:58.519Z,23.55
2022-10-13T22:56:29.668Z,24.02
2022-10-13T22:59:04.449Z,24.25
2022-10-13T23:01:32.311Z,24.63
2022-10-13T23:04:00.035Z,22.98
2022-10-13T23:06:33.772Z,21.52
2022-10-13T23:09:03.157Z,21.92
2022-10-13T23:11:30.485Z,20.50
2022-10-13T23:13:57.451Z,20.40
2022-10-13T23:16:26.330Z,19.73
2022-10-13T23:18:54.344Z,19.77
2022-10-13T23:21:23.399Z,18.92
2022-10-13T23:23:59.368Z,18.45
2022-10-13T23:26:27.697Z,19.10
2022-10-13T23:28:58.736Z,17.58
2022-10-13T23:31:27.659Z,18.45
2022-10-13T23:33:54.871Z,18.10
2022-10-13T23:36:26.097Z,17.77
2022-10-13T23:38:58.512Z,17.85
2022-10-13T23:41:27.579Z,15.90
2022-10-13T23:43:54.951Z,16.83
2022-10-13T23:46:22.026Z,18.55
2022-10-13T23:48:49.151Z,17.77
2022-10-13T23:51:20.424Z,16.55
2022-10-13T23:53:47.913Z,17.40
2022-10-13T23:56:15.286Z,17.00
2022-10-13T23:58:43.858Z,17.20
